sensor_id;sensor_type;location;lat;lon;timestamp;temperature;humidity
30851;DHT22;17567;48.382;9.102;2023-03-01T00:02:31;-4.30;99.90
30851;DHT22;17567;48.382;9.102;2023-03-01T00:07:32;-4.40;99.90
30851;DHT22;17567;48.382;9.102;2023-03-01T00:12:33;-4.40;99.90
30851;DHT22;17567;48.382;9.102;2023-03-01T00:17:33;-4.50;99.90
30851;DHT22;17567;48.382;9.102;2023-03-01T00:22:34;-4.60;99.90
30851;DHT22;17567;48.382;9.102;2023-03-01T00:27:34;-4.60;99.90
30851;DHT22;17567;48.382;9.102;2023-03-01T00:32:35;-4.60;99.90
30851;DHT22;17567;48.382;9.102;2023-03-01T00:37:36;-4.70;99.90
30851;DHT22;17567;48.382;9.102;2023-03-01T00:42:36;-4.80;99.90
30851;DHT22;17567;48.382;9.102;2023-03-01T00:47:37;-4.60;99.90
30851;DHT22;17567;48.382;9.102;2023-03-01T00:52:37;-4.70;99.90
30851;DHT22;17567;48.382;9.102;2023-03-01T00:57:38;-4.70;99.90
30851;DHT22;17567;48.382;9.102;2023-03-01T01:02:39;-4.80;99.90
30851;DHT22;17567;48.382;9.102;2023-03-01T01:07:39;-4.80;99.90
30851;DHT22;17567;48.382;9.102;2023-03-01T01:12:40;-4.80;99.90
30851;DHT22;17567;48.382;9.102;2023-03-01T01:17:40;-4.80;99.90
30851;DHT22;17567;48.382;9.102;2023-03-01T01:22:41;-4.70;99.90
30851;DHT22;17567;48.382;9.102;2023-03-01T01:27:41;-4.80;99.90
30851;DHT22;17567;48.382;9.102;2023-03-01T01:32:42;-4.80;99.90
30851;DHT22;17567;48.382;9.102;2023-03-01T01:37:43;-4.70;99.90
30851;DHT22;17567;48.382;9.102;2023-03-01T01:42:43;-4.60;99.90
30851;DHT22;17567;48.382;9.102;2023-03-01T01:47:44;-4.60;99.90
30851;DHT22;17567;48.382;9.102;2023-03-01T01:52:50;-4.60;99.90
30851;DHT22;17567;48.382;9.102;2023-03-01T01:57:58;-4.60;99.90
30851;DHT22;17567;48.382;9.102;2023-03-01T02:03:07;-4.50;99.90
30851;DHT22;17567;48.382;9.102;2023-03-01T02:08:08;-4.40;99.90
30851;DHT22;17567;48.382;9.102;2023-03-01T02:13:10;-4.40;99.90
30851;DHT22;17567;48.382;9.102;2023-03-01T02:18:16;-4.20;99.90
30851;DHT22;17567;48.382;9.102;2023-03-01T02:23:18;-4.20;99.90
30851;DHT22;17567;48.382;9.102;2023-03-01T02:28:40;-4.00;99.90
30851;DHT22;17567;48.382;9.102;2023-03-01T02:33:41;-3.90;99.90
30851;DHT22;17567;48.382;9.102;2023-03-01T02:38:43;-3.80;99.90
30851;DHT22;17567;48.382;9.102;2023-03-01T02:43:44;-3.70;99.90
30851;DHT22;17567;48.382;9.102;2023-03-01T02:48:54;-3.60;99.90
30851;DHT22;17567;48.382;9.102;2023-03-01T02:59:19;-3.40;99.90
30851;DHT22;17567;48.382;9.102;2023-03-01T03:04:20;-3.30;99.90
30851;DHT22;17567;48.382;9.102;2023-03-01T03:09:21;-3.30;99.90
30851;DHT22;17567;48.382;9.102;2023-03-01T03:14:21;-3.20;99.90
30851;DHT22;17567;48.382;9.102;2023-03-01T03:19:22;-3.10;99.90
30851;DHT22;17567;48.382;9.102;2023-03-01T03:24:22;-3.10;99.90
30851;DHT22;17567;48.382;9.102;2023-03-01T03:29:23;-3.00;99.90
30851;DHT22;17567;48.382;9.102;2023-03-01T03:34:24;-2.90;99.90
30851;DHT22;17567;48.382;9.102;2023-03-01T03:39:26;-2.90;99.90
30851;DHT22;17567;48.382;9.102;2023-03-01T03:44:27;-2.80;99.90
30851;DHT22;17567;48.382;9.102;2023-03-01T03:49:27;-2.70;99.90
30851;DHT22;17567;48.382;9.102;2023-03-01T03:54:28;-2.70;99.90
30851;DHT22;17567;48.382;9.102;2023-03-01T03:59:28;-2.70;99.90
30851;DHT22;17567;48.382;9.102;2023-03-01T04:04:29;-2.60;99.90
30851;DHT22;17567;48.382;9.102;2023-03-01T04:09:30;-2.60;99.90
30851;DHT22;17567;48.382;9.102;2023-03-01T04:14:30;-2.60;99.90
30851;DHT22;17567;48.382;9.102;2023-03-01T04:19:32;-2.50;99.90
30851;DHT22;17567;48.382;9.102;2023-03-01T04:24:36;-2.50;99.90
30851;DHT22;17567;48.382;9.102;2023-03-01T04:29:37;-2.50;99.90
30851;DHT22;17567;48.382;9.102;2023-03-01T04:34:37;-2.50;99.90
30851;DHT22;17567;48.382;9.102;2023-03-01T04:39:38;-2.50;99.90
30851;DHT22;17567;48.382;9.102;2023-03-01T04:44:46;-2.50;99.90
30851;DHT22;17567;48.382;9.102;2023-03-01T04:49:46;-2.50;99.90
30851;DHT22;17567;48.382;9.102;2023-03-01T04:54:47;-2.40;99.90
30851;DHT22;17567;48.382;9.102;2023-03-01T04:59:47;-2.30;99.90
30851;DHT22;17567;48.382;9.102;2023-03-01T05:04:48;-2.30;99.90
30851;DHT22;17567;48.382;9.102;2023-03-01T05:09:48;-2.30;99.90
30851;DHT22;17567;48.382;9.102;2023-03-01T05:14:49;-2.30;99.90
30851;DHT22;17567;48.382;9.102;2023-03-01T05:19:51;-2.30;99.90
30851;DHT22;17567;48.382;9.102;2023-03-01T05:24:52;-2.40;99.90
30851;DHT22;17567;48.382;9.102;2023-03-01T05:29:54;-2.40;99.90
30851;DHT22;17567;48.382;9.102;2023-03-01T05:34:54;-2.30;99.90
30851;DHT22;17567;48.382;9.102;2023-03-01T05:39:55;-2.30;99.90
30851;DHT22;17567;48.382;9.102;2023-03-01T05:44:56;-2.30;99.90
30851;DHT22;17567;48.382;9.102;2023-03-01T05:49:57;-2.30;99.90
30851;DHT22;17567;48.382;9.102;2023-03-01T05:54:57;-2.30;99.90
30851;DHT22;17567;48.382;9.102;2023-03-01T05:59:58;-2.30;99.90
30851;DHT22;17567;48.382;9.102;2023-03-01T06:04:58;-2.30;99.90
30851;DHT22;17567;48.382;9.102;2023-03-01T06:09:59;-2.30;99.90
30851;DHT22;17567;48.382;9.102;2023-03-01T06:15:00;-2.30;99.90
30851;DHT22;17567;48.382;9.102;2023-03-01T06:20:01;-2.30;99.90
30851;DHT22;17567;48.382;9.102;2023-03-01T06:25:02;-2.30;99.90
30851;DHT22;17567;48.382;9.102;2023-03-01T06:30:03;-2.30;99.90
30851;DHT22;17567;48.382;9.102;2023-03-01T06:35:05;-2.30;99.90
30851;DHT22;17567;48.382;9.102;2023-03-01T06:40:06;-2.30;99.90
30851;DHT22;17567;48.382;9.102;2023-03-01T06:45:09;-2.30;99.90
30851;DHT22;17567;48.382;9.102;2023-03-01T06:50:10;-2.30;99.90
30851;DHT22;17567;48.382;9.102;2023-03-01T06:55:12;-2.30;99.90
30851;DHT22;17567;48.382;9.102;2023-03-01T07:00:13;-2.20;99.90
30851;DHT22;17567;48.382;9.102;2023-03-01T07:05:14;-2.20;99.90
30851;DHT22;17567;48.382;9.102;2023-03-01T07:10:15;-2.10;99.90
30851;DHT22;17567;48.382;9.102;2023-03-01T07:15:15;-2.00;99.90
30851;DHT22;17567;48.382;9.102;2023-03-01T07:20:17;-1.90;99.90
30851;DHT22;17567;48.382;9.102;2023-03-01T07:25:18;-1.90;99.90
30851;DHT22;17567;48.382;9.102;2023-03-01T07:30:20;-1.80;99.90
30851;DHT22;17567;48.382;9.102;2023-03-01T07:35:21;-1.70;99.90
30851;DHT22;17567;48.382;9.102;2023-03-01T07:40:22;-1.70;99.90
30851;DHT22;17567;48.382;9.102;2023-03-01T07:45:23;-1.60;99.90
30851;DHT22;17567;48.382;9.102;2023-03-01T07:50:24;-1.50;99.90
30851;DHT22;17567;48.382;9.102;2023-03-01T07:55:24;-1.40;99.90
30851;DHT22;17567;48.382;9.102;2023-03-01T08:00:25;-1.40;99.90
30851;DHT22;17567;48.382;9.102;2023-03-01T08:05:26;-1.30;99.90
30851;DHT22;17567;48.382;9.102;2023-03-01T08:10:27;-1.20;99.90
30851;DHT22;17567;48.382;9.102;2023-03-01T08:15:27;-1.10;99.90
30851;DHT22;17567;48.382;9.102;2023-03-01T08:20:28;-1.00;99.90
30851;DHT22;17567;48.382;9.102;2023-03-01T08:25:28;-0.90;99.90
30851;DHT22;17567;48.382;9.102;2023-03-01T08:30:29;-0.90;99.90
30851;DHT22;17567;48.382;9.102;2023-03-01T08:35:30;-0.80;99.90
30851;DHT22;17567;48.382;9.102;2023-03-01T08:40:30;-0.70;99.90
30851;DHT22;17567;48.382;9.102;2023-03-01T08:45:32;-0.60;99.90
30851;DHT22;17567;48.382;9.102;2023-03-01T08:50:33;-0.50;99.90
30851;DHT22;17567;48.382;9.102;2023-03-01T08:55:33;-0.40;99.90
30851;DHT22;17567;48.382;9.102;2023-03-01T09:00:34;-0.10;99.90
30851;DHT22;17567;48.382;9.102;2023-03-01T09:05:35;0.00;99.90
30851;DHT22;17567;48.382;9.102;2023-03-01T09:10:38;0.20;99.90
30851;DHT22;17567;48.382;9.102;2023-03-01T09:15:39;0.40;99.90
30851;DHT22;17567;48.382;9.102;2023-03-01T09:20:40;0.50;99.90
30851;DHT22;17567;48.382;9.102;2023-03-01T09:25:41;0.70;99.90
30851;DHT22;17567;48.382;9.102;2023-03-01T09:30:42;1.00;99.90
30851;DHT22;17567;48.382;9.102;2023-03-01T09:35:42;1.20;99.90
30851;DHT22;17567;48.382;9.102;2023-03-01T09:40:46;1.40;99.90
30851;DHT22;17567;48.382;9.102;2023-03-01T09:45:49;1.60;99.90
30851;DHT22;17567;48.382;9.102;2023-03-01T09:50:51;1.60;99.90
30851;DHT22;17567;48.382;9.102;2023-03-01T10:01:15;1.70;99.90
30851;DHT22;17567;48.382;9.102;2023-03-01T10:06:24;1.90;99.90
30851;DHT22;17567;48.382;9.102;2023-03-01T10:11:32;2.00;99.90
30851;DHT22;17567;48.382;9.102;2023-03-01T10:16:43;2.30;99.90
30851;DHT22;17567;48.382;9.102;2023-03-01T10:21:48;2.40;99.90
30851;DHT22;17567;48.382;9.102;2023-03-01T10:26:57;2.50;99.90
30851;DHT22;17567;48.382;9.102;2023-03-01T10:31:59;2.70;99.90
30851;DHT22;17567;48.382;9.102;2023-03-01T10:37:13;2.70;99.90
30851;DHT22;17567;48.382;9.102;2023-03-01T10:42:32;2.90;99.90
30851;DHT22;17567;48.382;9.102;2023-03-01T10:47:32;3.10;99.90
30851;DHT22;17567;48.382;9.102;2023-03-01T10:52:35;3.40;99.90
30851;DHT22;17567;48.382;9.102;2023-03-01T10:57:38;3.50;99.90
30851;DHT22;17567;48.382;9.102;2023-03-01T11:07:51;4.00;99.90
30851;DHT22;17567;48.382;9.102;2023-03-01T11:12:53;4.70;99.90
30851;DHT22;17567;48.382;9.102;2023-03-01T11:17:56;5.20;99.90
30851;DHT22;17567;48.382;9.102;2023-03-01T11:23:11;5.80;99.90
30851;DHT22;17567;48.382;9.102;2023-03-01T11:28:17;6.50;99.90
30851;DHT22;17567;48.382;9.102;2023-03-01T11:38:51;7.50;99.90
30851;DHT22;17567;48.382;9.102;2023-03-01T11:44:01;8.20;99.90
30851;DHT22;17567;48.382;9.102;2023-03-01T12:20:37;11.10;99.90
30851;DHT22;17567;48.382;9.102;2023-03-01T12:25:45;11.50;99.90
30851;DHT22;17567;48.382;9.102;2023-03-01T12:52:16;12.50;99.90
30851;DHT22;17567;48.382;9.102;2023-03-01T13:02:48;13.20;99.90
30851;DHT22;17567;48.382;9.102;2023-03-01T13:08:31;13.40;99.90
30851;DHT22;17567;48.382;9.102;2023-03-01T13:13:34;13.40;99.90
30851;DHT22;17567;48.382;9.102;2023-03-01T13:18:35;13.90;99.90
30851;DHT22;17567;48.382;9.102;2023-03-01T13:23:38;14.20;98.10
30851;DHT22;17567;48.382;9.102;2023-03-01T13:33:59;14.30;99.90
30851;DHT22;17567;48.382;9.102;2023-03-01T13:39:02;14.20;99.90
30851;DHT22;17567;48.382;9.102;2023-03-01T13:49:18;14.40;94.10
30851;DHT22;17567;48.382;9.102;2023-03-01T13:54:29;14.70;97.20
30851;DHT22;17567;48.382;9.102;2023-03-01T13:59:30;14.80;96.80
30851;DHT22;17567;48.382;9.102;2023-03-01T14:04:32;13.40;96.70
30851;DHT22;17567;48.382;9.102;2023-03-01T14:09:40;13.60;98.60
30851;DHT22;17567;48.382;9.102;2023-03-01T14:15:01;13.60;96.40
30851;DHT22;17567;48.382;9.102;2023-03-01T14:25:20;14.40;95.10
30851;DHT22;17567;48.382;9.102;2023-03-01T14:30:25;14.10;94.50
30851;DHT22;17567;48.382;9.102;2023-03-01T14:35:36;13.90;94.30
30851;DHT22;17567;48.382;9.102;2023-03-01T14:40:37;13.90;95.90
30851;DHT22;17567;48.382;9.102;2023-03-01T14:45:37;13.30;94.90
30851;DHT22;17567;48.382;9.102;2023-03-01T14:50:42;13.20;94.50
30851;DHT22;17567;48.382;9.102;2023-03-01T14:55:48;13.00;99.90
30851;DHT22;17567;48.382;9.102;2023-03-01T15:00:58;13.30;96.10
30851;DHT22;17567;48.382;9.102;2023-03-01T15:06:01;13.60;95.00
30851;DHT22;17567;48.382;9.102;2023-03-01T15:11:15;13.60;95.00
30851;DHT22;17567;48.382;9.102;2023-03-01T15:16:21;13.60;93.80
30851;DHT22;17567;48.382;9.102;2023-03-01T15:21:26;13.20;93.20
30851;DHT22;17567;48.382;9.102;2023-03-01T15:26:32;13.20;96.50
30851;DHT22;17567;48.382;9.102;2023-03-01T15:31:36;12.90;93.60
30851;DHT22;17567;48.382;9.102;2023-03-01T15:36:46;12.90;96.60
30851;DHT22;17567;48.382;9.102;2023-03-01T15:41:50;13.20;95.80
30851;DHT22;17567;48.382;9.102;2023-03-01T15:46:50;13.20;95.70
30851;DHT22;17567;48.382;9.102;2023-03-01T15:51:53;13.00;99.90
30851;DHT22;17567;48.382;9.102;2023-03-01T16:06:57;10.70;95.90
30851;DHT22;17567;48.382;9.102;2023-03-01T16:22:03;10.10;99.90
30851;DHT22;17567;48.382;9.102;2023-03-01T16:27:04;10.20;99.90
30851;DHT22;17567;48.382;9.102;2023-03-01T16:32:04;9.60;99.40
30851;DHT22;17567;48.382;9.102;2023-03-01T16:37:05;9.40;99.90
30851;DHT22;17567;48.382;9.102;2023-03-01T16:42:06;9.10;99.90
30851;DHT22;17567;48.382;9.102;2023-03-01T16:47:06;8.70;99.90
30851;DHT22;17567;48.382;9.102;2023-03-01T16:52:07;7.90;99.90
30851;DHT22;17567;48.382;9.102;2023-03-01T16:57:07;7.60;99.90
30851;DHT22;17567;48.382;9.102;2023-03-01T17:02:12;7.40;99.90
30851;DHT22;17567;48.382;9.102;2023-03-01T17:07:15;7.00;99.90
30851;DHT22;17567;48.382;9.102;2023-03-01T17:12:15;6.80;99.90
30851;DHT22;17567;48.382;9.102;2023-03-01T17:17:16;6.60;99.90
30851;DHT22;17567;48.382;9.102;2023-03-01T17:27:20;6.10;99.90
30851;DHT22;17567;48.382;9.102;2023-03-01T17:32:21;6.00;99.90
30851;DHT22;17567;48.382;9.102;2023-03-01T17:37:22;5.60;99.90
30851;DHT22;17567;48.382;9.102;2023-03-01T17:47:23;5.20;99.90
30851;DHT22;17567;48.382;9.102;2023-03-01T17:52:24;5.00;99.90
30851;DHT22;17567;48.382;9.102;2023-03-01T17:57:25;4.80;99.90
30851;DHT22;17567;48.382;9.102;2023-03-01T18:02:26;4.80;99.90
30851;DHT22;17567;48.382;9.102;2023-03-01T18:27:34;3.90;99.90
30851;DHT22;17567;48.382;9.102;2023-03-01T18:32:36;3.70;99.90
30851;DHT22;17567;48.382;9.102;2023-03-01T18:37:38;3.50;99.90
30851;DHT22;17567;48.382;9.102;2023-03-01T18:42:39;3.50;99.90
30851;DHT22;17567;48.382;9.102;2023-03-01T18:47:40;3.50;99.90
30851;DHT22;17567;48.382;9.102;2023-03-01T18:52:40;3.30;99.90
30851;DHT22;17567;48.382;9.102;2023-03-01T18:57:41;3.20;99.90
30851;DHT22;17567;48.382;9.102;2023-03-01T19:02:41;3.10;99.90
30851;DHT22;17567;48.382;9.102;2023-03-01T19:07:42;3.00;99.90
30851;DHT22;17567;48.382;9.102;2023-03-01T19:12:43;3.00;99.90
30851;DHT22;17567;48.382;9.102;2023-03-01T19:17:43;3.00;99.90
30851;DHT22;17567;48.382;9.102;2023-03-01T19:22:44;2.90;99.90
30851;DHT22;17567;48.382;9.102;2023-03-01T19:27:45;2.80;99.90
30851;DHT22;17567;48.382;9.102;2023-03-01T19:32:48;2.70;99.90
30851;DHT22;17567;48.382;9.102;2023-03-01T19:37:48;2.80;99.90
30851;DHT22;17567;48.382;9.102;2023-03-01T19:42:49;2.70;99.90
30851;DHT22;17567;48.382;9.102;2023-03-01T19:47:50;2.80;99.90
30851;DHT22;17567;48.382;9.102;2023-03-01T19:52:51;2.70;99.90
30851;DHT22;17567;48.382;9.102;2023-03-01T19:57:52;2.60;99.90
30851;DHT22;17567;48.382;9.102;2023-03-01T20:02:52;2.60;99.90
30851;DHT22;17567;48.382;9.102;2023-03-01T20:07:56;2.60;99.90
30851;DHT22;17567;48.382;9.102;2023-03-01T20:12:56;2.50;99.90
30851;DHT22;17567;48.382;9.102;2023-03-01T20:17:57;2.40;99.90
30851;DHT22;17567;48.382;9.102;2023-03-01T20:22:58;2.40;99.90
30851;DHT22;17567;48.382;9.102;2023-03-01T20:27:59;2.40;99.90
30851;DHT22;17567;48.382;9.102;2023-03-01T20:32:59;2.30;99.90
30851;DHT22;17567;48.382;9.102;2023-03-01T20:38:04;2.20;99.90
30851;DHT22;17567;48.382;9.102;2023-03-01T20:43:04;2.10;99.90
30851;DHT22;17567;48.382;9.102;2023-03-01T20:48:06;2.00;99.90
30851;DHT22;17567;48.382;9.102;2023-03-01T20:53:07;1.60;99.90
30851;DHT22;17567;48.382;9.102;2023-03-01T20:58:08;1.70;99.90
30851;DHT22;17567;48.382;9.102;2023-03-01T21:03:08;1.50;99.90
30851;DHT22;17567;48.382;9.102;2023-03-01T21:08:09;1.40;99.90
30851;DHT22;17567;48.382;9.102;2023-03-01T21:13:09;1.30;99.90
30851;DHT22;17567;48.382;9.102;2023-03-01T21:18:10;1.20;99.90
30851;DHT22;17567;48.382;9.102;2023-03-01T21:23:11;1.10;99.90
30851;DHT22;17567;48.382;9.102;2023-03-01T21:28:11;1.00;99.90
30851;DHT22;17567;48.382;9.102;2023-03-01T21:33:12;0.90;99.90
30851;DHT22;17567;48.382;9.102;2023-03-01T21:38:13;0.80;99.90
30851;DHT22;17567;48.382;9.102;2023-03-01T21:43:13;0.60;99.90
30851;DHT22;17567;48.382;9.102;2023-03-01T21:48:14;0.50;99.90
30851;DHT22;17567;48.382;9.102;2023-03-01T21:53:14;0.40;99.90
30851;DHT22;17567;48.382;9.102;2023-03-01T21:58:15;0.40;99.90
30851;DHT22;17567;48.382;9.102;2023-03-01T22:03:15;0.30;99.90
30851;DHT22;17567;48.382;9.102;2023-03-01T22:08:16;0.20;99.90
30851;DHT22;17567;48.382;9.102;2023-03-01T22:13:17;0.10;99.90
30851;DHT22;17567;48.382;9.102;2023-03-01T22:18:18;0.00;99.90
30851;DHT22;17567;48.382;9.102;2023-03-01T22:23:22;-0.10;99.90
30851;DHT22;17567;48.382;9.102;2023-03-01T22:28:22;-0.10;99.90
30851;DHT22;17567;48.382;9.102;2023-03-01T22:33:23;-0.30;99.90
30851;DHT22;17567;48.382;9.102;2023-03-01T22:38:24;-0.40;99.90
30851;DHT22;17567;48.382;9.102;2023-03-01T22:43:25;-0.50;99.90
30851;DHT22;17567;48.382;9.102;2023-03-01T22:48:25;-0.50;99.90
30851;DHT22;17567;48.382;9.102;2023-03-01T22:53:26;-0.60;99.90
30851;DHT22;17567;48.382;9.102;2023-03-01T22:58:26;-0.60;99.90
30851;DHT22;17567;48.382;9.102;2023-03-01T23:03:27;-0.80;99.90
30851;DHT22;17567;48.382;9.102;2023-03-01T23:08:28;-0.80;99.90
30851;DHT22;17567;48.382;9.102;2023-03-01T23:13:28;-0.80;99.90
30851;DHT22;17567;48.382;9.102;2023-03-01T23:18:29;-0.90;99.90
30851;DHT22;17567;48.382;9.102;2023-03-01T23:23:29;-1.00;99.90
30851;DHT22;17567;48.382;9.102;2023-03-01T23:28:30;-1.00;99.90
30851;DHT22;17567;48.382;9.102;2023-03-01T23:33:32;-1.10;99.90
30851;DHT22;17567;48.382;9.102;2023-03-01T23:38:36;-1.10;99.90
30851;DHT22;17567;48.382;9.102;2023-03-01T23:43:37;-1.20;99.90
30851;DHT22;17567;48.382;9.102;2023-03-01T23:48:38;-1.20;99.90
30851;DHT22;17567;48.382;9.102;2023-03-01T23:53:41;-1.20;99.90
30851;DHT22;17567;48.382;9.102;2023-03-01T23:58:42;-1.20;99.90
